sensor_id;sensor_type;location;lat;lon;timestamp;temperature;humidity
13256;DHT22;37913;48.370;10.930;2022-09-09T00:01:51;12.00;99.90
13256;DHT22;37913;48.370;10.930;2022-09-09T00:04:26;12.00;99.90
13256;DHT22;37913;48.370;10.930;2022-09-09T00:07:00;12.10;99.90
13256;DHT22;37913;48.370;10.930;2022-09-09T00:09:31;12.10;99.90
13256;DHT22;37913;48.370;10.930;2022-09-09T00:12:10;12.20;99.90
13256;DHT22;37913;48.370;10.930;2022-09-09T00:14:43;12.30;99.90
13256;DHT22;37913;48.370;10.930;2022-09-09T00:17:21;12.30;99.90
13256;DHT22;37913;48.370;10.930;2022-09-09T00:19:55;12.20;99.90
13256;DHT22;37913;48.370;10.930;2022-09-09T00:22:25;12.30;99.90
13256;DHT22;37913;48.370;10.930;2022-09-09T00:24:55;12.30;99.90
13256;DHT22;37913;48.370;10.930;2022-09-09T00:27:26;12.30;99.90
13256;DHT22;37913;48.370;10.930;2022-09-09T00:29:58;12.40;99.90
13256;DHT22;37913;48.370;10.930;2022-09-09T00:32:30;12.30;99.90
13256;DHT22;37913;48.370;10.930;2022-09-09T00:35:04;12.30;99.90
13256;DHT22;37913;48.370;10.930;2022-09-09T00:37:38;12.30;99.90
13256;DHT22;37913;48.370;10.930;2022-09-09T00:40:18;12.40;99.90
13256;DHT22;37913;48.370;10.930;2022-09-09T00:42:54;12.50;99.90
13256;DHT22;37913;48.370;10.930;2022-09-09T00:45:39;12.40;99.90
13256;DHT22;37913;48.370;10.930;2022-09-09T00:48:11;12.50;99.90
13256;DHT22;37913;48.370;10.930;2022-09-09T00:50:45;12.50;99.90
13256;DHT22;37913;48.370;10.930;2022-09-09T00:53:28;12.40;99.90
13256;DHT22;37913;48.370;10.930;2022-09-09T00:56:06;12.20;99.90
13256;DHT22;37913;48.370;10.930;2022-09-09T00:58:35;12.20;99.90
13256;DHT22;37913;48.370;10.930;2022-09-09T01:01:05;12.20;99.90
13256;DHT22;37913;48.370;10.930;2022-09-09T01:03:38;12.10;99.90
13256;DHT22;37913;48.370;10.930;2022-09-09T01:06:17;12.20;99.90
13256;DHT22;37913;48.370;10.930;2022-09-09T01:09:10;12.30;99.90
13256;DHT22;37913;48.370;10.930;2022-09-09T01:11:50;12.30;99.90
13256;DHT22;37913;48.370;10.930;2022-09-09T01:14:27;12.40;99.90
13256;DHT22;37913;48.370;10.930;2022-09-09T01:16:59;12.30;99.90
13256;DHT22;37913;48.370;10.930;2022-09-09T01:19:39;12.30;99.90
13256;DHT22;37913;48.370;10.930;2022-09-09T01:22:13;12.40;99.90
13256;DHT22;37913;48.370;10.930;2022-09-09T01:24:48;12.30;99.90
13256;DHT22;37913;48.370;10.930;2022-09-09T01:27:21;12.40;99.90
13256;DHT22;37913;48.370;10.930;2022-09-09T01:29:50;12.30;99.90
13256;DHT22;37913;48.370;10.930;2022-09-09T01:32:39;12.20;99.90
13256;DHT22;37913;48.370;10.930;2022-09-09T01:35:12;12.10;99.90
13256;DHT22;37913;48.370;10.930;2022-09-09T01:37:39;12.10;99.90
13256;DHT22;37913;48.370;10.930;2022-09-09T01:40:08;12.10;99.90
13256;DHT22;37913;48.370;10.930;2022-09-09T01:42:36;12.00;99.90
13256;DHT22;37913;48.370;10.930;2022-09-09T01:45:04;12.00;99.90
13256;DHT22;37913;48.370;10.930;2022-09-09T01:47:32;11.90;99.90
13256;DHT22;37913;48.370;10.930;2022-09-09T01:49:59;11.90;99.90
13256;DHT22;37913;48.370;10.930;2022-09-09T01:52:27;11.90;99.90
13256;DHT22;37913;48.370;10.930;2022-09-09T01:54:54;11.80;99.90
13256;DHT22;37913;48.370;10.930;2022-09-09T01:57:24;11.80;99.90
13256;DHT22;37913;48.370;10.930;2022-09-09T02:00:01;11.80;99.90
13256;DHT22;37913;48.370;10.930;2022-09-09T02:02:33;11.80;99.90
13256;DHT22;37913;48.370;10.930;2022-09-09T02:05:13;11.80;99.90
13256;DHT22;37913;48.370;10.930;2022-09-09T02:07:45;11.80;99.90
13256;DHT22;37913;48.370;10.930;2022-09-09T02:10:17;11.70;99.90
13256;DHT22;37913;48.370;10.930;2022-09-09T02:12:48;11.70;99.90
13256;DHT22;37913;48.370;10.930;2022-09-09T02:15:24;11.60;99.90
13256;DHT22;37913;48.370;10.930;2022-09-09T02:17:52;11.50;99.90
13256;DHT22;37913;48.370;10.930;2022-09-09T02:20:22;11.50;99.90
13256;DHT22;37913;48.370;10.930;2022-09-09T02:22:53;11.40;99.90
13256;DHT22;37913;48.370;10.930;2022-09-09T02:25:23;11.40;99.90
13256;DHT22;37913;48.370;10.930;2022-09-09T02:27:51;11.40;99.90
13256;DHT22;37913;48.370;10.930;2022-09-09T02:30:20;11.40;99.90
13256;DHT22;37913;48.370;10.930;2022-09-09T02:32:48;11.40;99.90
13256;DHT22;37913;48.370;10.930;2022-09-09T02:35:19;11.40;99.90
13256;DHT22;37913;48.370;10.930;2022-09-09T02:37:47;11.40;99.90
13256;DHT22;37913;48.370;10.930;2022-09-09T02:40:15;11.40;99.90
13256;DHT22;37913;48.370;10.930;2022-09-09T02:42:44;11.40;99.90
13256;DHT22;37913;48.370;10.930;2022-09-09T02:45:14;11.40;99.90
13256;DHT22;37913;48.370;10.930;2022-09-09T02:47:47;11.50;99.90
13256;DHT22;37913;48.370;10.930;2022-09-09T02:50:21;11.50;99.90
13256;DHT22;37913;48.370;10.930;2022-09-09T02:52:58;11.50;99.90
13256;DHT22;37913;48.370;10.930;2022-09-09T02:55:36;11.50;99.90
13256;DHT22;37913;48.370;10.930;2022-09-09T02:58:06;11.50;99.90
13256;DHT22;37913;48.370;10.930;2022-09-09T03:00:35;11.50;99.90
13256;DHT22;37913;48.370;10.930;2022-09-09T03:03:05;11.50;99.90
13256;DHT22;37913;48.370;10.930;2022-09-09T03:05:34;11.50;99.90
13256;DHT22;37913;48.370;10.930;2022-09-09T03:08:01;11.50;99.90
13256;DHT22;37913;48.370;10.930;2022-09-09T03:10:28;11.50;99.90
13256;DHT22;37913;48.370;10.930;2022-09-09T03:12:56;11.60;99.90
13256;DHT22;37913;48.370;10.930;2022-09-09T03:15:22;11.60;99.90
13256;DHT22;37913;48.370;10.930;2022-09-09T03:17:49;11.60;99.90
13256;DHT22;37913;48.370;10.930;2022-09-09T03:20:18;11.50;99.90
13256;DHT22;37913;48.370;10.930;2022-09-09T03:22:45;11.50;99.90
13256;DHT22;37913;48.370;10.930;2022-09-09T03:25:11;11.60;99.90
13256;DHT22;37913;48.370;10.930;2022-09-09T03:27:38;11.60;99.90
13256;DHT22;37913;48.370;10.930;2022-09-09T03:30:06;11.60;99.90
13256;DHT22;37913;48.370;10.930;2022-09-09T03:32:33;11.50;99.90
13256;DHT22;37913;48.370;10.930;2022-09-09T03:35:00;11.40;99.90
13256;DHT22;37913;48.370;10.930;2022-09-09T03:37:28;11.40;99.90
13256;DHT22;37913;48.370;10.930;2022-09-09T03:39:57;11.40;99.90
13256;DHT22;37913;48.370;10.930;2022-09-09T03:42:25;11.30;99.90
13256;DHT22;37913;48.370;10.930;2022-09-09T03:44:52;11.20;99.90
13256;DHT22;37913;48.370;10.930;2022-09-09T03:47:20;11.20;99.90
13256;DHT22;37913;48.370;10.930;2022-09-09T03:49:48;11.20;99.90
13256;DHT22;37913;48.370;10.930;2022-09-09T03:52:15;11.30;99.90
13256;DHT22;37913;48.370;10.930;2022-09-09T03:54:45;11.20;99.90
13256;DHT22;37913;48.370;10.930;2022-09-09T03:57:12;11.30;99.90
13256;DHT22;37913;48.370;10.930;2022-09-09T03:59:42;11.40;99.90
13256;DHT22;37913;48.370;10.930;2022-09-09T04:02:09;11.40;99.90
13256;DHT22;37913;48.370;10.930;2022-09-09T04:04:36;11.40;99.90
13256;DHT22;37913;48.370;10.930;2022-09-09T04:07:03;11.40;99.90
13256;DHT22;37913;48.370;10.930;2022-09-09T04:09:32;11.30;99.90
13256;DHT22;37913;48.370;10.930;2022-09-09T04:12:02;11.20;99.90
13256;DHT22;37913;48.370;10.930;2022-09-09T04:14:29;11.10;99.90
13256;DHT22;37913;48.370;10.930;2022-09-09T04:16:56;11.10;99.90
13256;DHT22;37913;48.370;10.930;2022-09-09T04:19:25;11.10;99.90
13256;DHT22;37913;48.370;10.930;2022-09-09T04:21:52;11.10;99.90
13256;DHT22;37913;48.370;10.930;2022-09-09T04:24:19;11.20;99.90
13256;DHT22;37913;48.370;10.930;2022-09-09T04:26:46;11.30;99.90
13256;DHT22;37913;48.370;10.930;2022-09-09T04:29:14;11.50;99.90
13256;DHT22;37913;48.370;10.930;2022-09-09T04:31:41;11.60;99.90
13256;DHT22;37913;48.370;10.930;2022-09-09T04:34:08;11.70;99.90
13256;DHT22;37913;48.370;10.930;2022-09-09T04:36:35;11.90;99.90
13256;DHT22;37913;48.370;10.930;2022-09-09T04:39:02;12.00;99.90
13256;DHT22;37913;48.370;10.930;2022-09-09T04:41:29;12.10;99.90
13256;DHT22;37913;48.370;10.930;2022-09-09T04:43:57;12.20;99.90
13256;DHT22;37913;48.370;10.930;2022-09-09T04:46:26;12.20;99.90
13256;DHT22;37913;48.370;10.930;2022-09-09T04:48:53;12.30;99.90
13256;DHT22;37913;48.370;10.930;2022-09-09T04:51:20;12.30;99.90
13256;DHT22;37913;48.370;10.930;2022-09-09T04:53:47;12.40;99.90
13256;DHT22;37913;48.370;10.930;2022-09-09T04:56:16;12.40;99.90
13256;DHT22;37913;48.370;10.930;2022-09-09T04:58:44;12.40;99.90
13256;DHT22;37913;48.370;10.930;2022-09-09T05:01:13;12.40;99.90
13256;DHT22;37913;48.370;10.930;2022-09-09T05:03:41;12.40;99.90
13256;DHT22;37913;48.370;10.930;2022-09-09T05:06:13;12.40;99.90
13256;DHT22;37913;48.370;10.930;2022-09-09T05:08:40;12.50;99.90
13256;DHT22;37913;48.370;10.930;2022-09-09T05:11:14;12.60;99.90
13256;DHT22;37913;48.370;10.930;2022-09-09T05:13:42;12.70;99.90
13256;DHT22;37913;48.370;10.930;2022-09-09T05:16:08;12.80;99.90
13256;DHT22;37913;48.370;10.930;2022-09-09T05:18:36;12.80;99.90
13256;DHT22;37913;48.370;10.930;2022-09-09T05:21:05;13.00;99.90
13256;DHT22;37913;48.370;10.930;2022-09-09T05:23:32;13.10;99.90
13256;DHT22;37913;48.370;10.930;2022-09-09T05:25:59;13.20;99.90
13256;DHT22;37913;48.370;10.930;2022-09-09T05:28:27;13.30;99.90
13256;DHT22;37913;48.370;10.930;2022-09-09T05:30:58;13.30;99.90
13256;DHT22;37913;48.370;10.930;2022-09-09T05:33:26;13.40;99.90
13256;DHT22;37913;48.370;10.930;2022-09-09T05:36:00;13.50;99.90
13256;DHT22;37913;48.370;10.930;2022-09-09T05:38:29;13.50;99.90
13256;DHT22;37913;48.370;10.930;2022-09-09T05:40:56;13.50;99.90
13256;DHT22;37913;48.370;10.930;2022-09-09T05:43:23;13.60;99.90
13256;DHT22;37913;48.370;10.930;2022-09-09T05:46:00;13.60;99.90
13256;DHT22;37913;48.370;10.930;2022-09-09T05:48:28;13.70;99.90
13256;DHT22;37913;48.370;10.930;2022-09-09T05:50:56;13.80;99.90
13256;DHT22;37913;48.370;10.930;2022-09-09T05:53:23;14.00;99.90
13256;DHT22;37913;48.370;10.930;2022-09-09T05:55:58;14.00;99.90
13256;DHT22;37913;48.370;10.930;2022-09-09T05:58:25;14.10;99.90
13256;DHT22;37913;48.370;10.930;2022-09-09T06:00:52;14.10;99.90
13256;DHT22;37913;48.370;10.930;2022-09-09T06:03:20;14.10;99.90
13256;DHT22;37913;48.370;10.930;2022-09-09T06:05:57;14.10;99.90
13256;DHT22;37913;48.370;10.930;2022-09-09T06:08:24;14.30;99.90
13256;DHT22;37913;48.370;10.930;2022-09-09T06:10:52;14.30;99.90
13256;DHT22;37913;48.370;10.930;2022-09-09T06:13:19;14.40;99.90
13256;DHT22;37913;48.370;10.930;2022-09-09T06:15:49;14.60;99.90
13256;DHT22;37913;48.370;10.930;2022-09-09T06:18:17;14.70;99.90
13256;DHT22;37913;48.370;10.930;2022-09-09T06:20:53;14.80;99.90
13256;DHT22;37913;48.370;10.930;2022-09-09T06:23:20;14.90;99.90
13256;DHT22;37913;48.370;10.930;2022-09-09T06:25:47;15.10;99.90
13256;DHT22;37913;48.370;10.930;2022-09-09T06:28:17;15.20;99.90
13256;DHT22;37913;48.370;10.930;2022-09-09T06:30:44;15.40;99.90
13256;DHT22;37913;48.370;10.930;2022-09-09T06:33:12;15.70;99.90
13256;DHT22;37913;48.370;10.930;2022-09-09T06:35:39;15.80;99.90
13256;DHT22;37913;48.370;10.930;2022-09-09T06:38:06;15.90;99.90
13256;DHT22;37913;48.370;10.930;2022-09-09T06:40:34;15.80;99.90
13256;DHT22;37913;48.370;10.930;2022-09-09T06:43:00;15.70;99.90
13256;DHT22;37913;48.370;10.930;2022-09-09T06:45:29;15.70;99.90
13256;DHT22;37913;48.370;10.930;2022-09-09T06:47:56;15.70;99.90
13256;DHT22;37913;48.370;10.930;2022-09-09T06:50:23;15.70;99.90
13256;DHT22;37913;48.370;10.930;2022-09-09T06:52:50;15.90;99.90
13256;DHT22;37913;48.370;10.930;2022-09-09T06:55:17;15.90;99.90
13256;DHT22;37913;48.370;10.930;2022-09-09T06:57:44;15.90;99.90
13256;DHT22;37913;48.370;10.930;2022-09-09T07:00:12;15.90;99.90
13256;DHT22;37913;48.370;10.930;2022-09-09T07:02:41;16.00;99.90
13256;DHT22;37913;48.370;10.930;2022-09-09T07:05:08;16.00;99.90
13256;DHT22;37913;48.370;10.930;2022-09-09T07:07:36;16.20;99.90
13256;DHT22;37913;48.370;10.930;2022-09-09T07:10:03;16.40;99.90
13256;DHT22;37913;48.370;10.930;2022-09-09T07:12:30;16.50;99.90
13256;DHT22;37913;48.370;10.930;2022-09-09T07:14:57;16.60;99.90
13256;DHT22;37913;48.370;10.930;2022-09-09T07:17:24;16.30;99.90
13256;DHT22;37913;48.370;10.930;2022-09-09T07:19:52;16.10;99.90
13256;DHT22;37913;48.370;10.930;2022-09-09T07:22:19;16.10;99.90
13256;DHT22;37913;48.370;10.930;2022-09-09T07:24:46;16.10;99.90
13256;DHT22;37913;48.370;10.930;2022-09-09T07:27:15;16.30;99.90
13256;DHT22;37913;48.370;10.930;2022-09-09T07:29:41;16.20;99.90
13256;DHT22;37913;48.370;10.930;2022-09-09T07:32:08;16.00;99.90
13256;DHT22;37913;48.370;10.930;2022-09-09T07:34:35;16.00;99.90
13256;DHT22;37913;48.370;10.930;2022-09-09T07:37:04;15.90;99.90
13256;DHT22;37913;48.370;10.930;2022-09-09T07:39:30;15.80;99.90
13256;DHT22;37913;48.370;10.930;2022-09-09T07:41:57;15.70;99.90
13256;DHT22;37913;48.370;10.930;2022-09-09T07:44:25;15.70;99.90
13256;DHT22;37913;48.370;10.930;2022-09-09T07:46:52;15.70;99.90
13256;DHT22;37913;48.370;10.930;2022-09-09T07:49:19;15.80;99.90
13256;DHT22;37913;48.370;10.930;2022-09-09T07:51:47;16.10;99.90
13256;DHT22;37913;48.370;10.930;2022-09-09T07:54:18;16.20;99.90
13256;DHT22;37913;48.370;10.930;2022-09-09T07:56:49;16.10;99.90
13256;DHT22;37913;48.370;10.930;2022-09-09T07:59:16;16.30;99.90
13256;DHT22;37913;48.370;10.930;2022-09-09T08:01:45;16.40;99.90
13256;DHT22;37913;48.370;10.930;2022-09-09T08:04:14;16.70;99.90
13256;DHT22;37913;48.370;10.930;2022-09-09T08:06:44;16.80;99.90
13256;DHT22;37913;48.370;10.930;2022-09-09T08:09:12;16.80;99.90
13256;DHT22;37913;48.370;10.930;2022-09-09T08:11:41;17.00;99.90
13256;DHT22;37913;48.370;10.930;2022-09-09T08:14:09;17.10;99.90
13256;DHT22;37913;48.370;10.930;2022-09-09T08:16:38;17.40;99.90
13256;DHT22;37913;48.370;10.930;2022-09-09T08:19:06;18.00;99.90
13256;DHT22;37913;48.370;10.930;2022-09-09T08:21:34;18.90;99.90
13256;DHT22;37913;48.370;10.930;2022-09-09T08:24:03;19.30;99.90
13256;DHT22;37913;48.370;10.930;2022-09-09T08:26:32;19.60;99.90
13256;DHT22;37913;48.370;10.930;2022-09-09T08:29:02;20.80;99.90
13256;DHT22;37913;48.370;10.930;2022-09-09T08:31:31;22.90;99.90
13256;DHT22;37913;48.370;10.930;2022-09-09T08:33:59;24.60;99.90
13256;DHT22;37913;48.370;10.930;2022-09-09T08:36:28;25.30;99.90
13256;DHT22;37913;48.370;10.930;2022-09-09T08:38:57;23.10;99.90
13256;DHT22;37913;48.370;10.930;2022-09-09T08:41:39;22.70;99.90
13256;DHT22;37913;48.370;10.930;2022-09-09T08:44:14;23.30;99.90
13256;DHT22;37913;48.370;10.930;2022-09-09T08:46:50;22.80;99.90
13256;DHT22;37913;48.370;10.930;2022-09-09T08:49:42;22.90;99.90
13256;DHT22;37913;48.370;10.930;2022-09-09T08:52:16;22.80;99.90
13256;DHT22;37913;48.370;10.930;2022-09-09T08:54:44;23.00;99.90
13256;DHT22;37913;48.370;10.930;2022-09-09T08:57:17;22.60;99.90
13256;DHT22;37913;48.370;10.930;2022-09-09T08:59:47;21.70;99.90
13256;DHT22;37913;48.370;10.930;2022-09-09T09:02:18;21.60;99.90
13256;DHT22;37913;48.370;10.930;2022-09-09T09:04:58;21.60;99.90
13256;DHT22;37913;48.370;10.930;2022-09-09T09:07:33;21.00;99.90
13256;DHT22;37913;48.370;10.930;2022-09-09T09:10:10;21.20;99.90
13256;DHT22;37913;48.370;10.930;2022-09-09T09:12:42;21.70;99.90
13256;DHT22;37913;48.370;10.930;2022-09-09T09:15:17;21.10;99.90
13256;DHT22;37913;48.370;10.930;2022-09-09T09:17:46;20.70;99.90
13256;DHT22;37913;48.370;10.930;2022-09-09T09:20:15;21.80;99.90
13256;DHT22;37913;48.370;10.930;2022-09-09T09:22:47;22.20;99.90
13256;DHT22;37913;48.370;10.930;2022-09-09T09:25:18;23.50;99.90
13256;DHT22;37913;48.370;10.930;2022-09-09T09:27:52;24.30;99.90
13256;DHT22;37913;48.370;10.930;2022-09-09T09:30:25;23.50;99.90
13256;DHT22;37913;48.370;10.930;2022-09-09T09:32:56;24.30;99.90
13256;DHT22;37913;48.370;10.930;2022-09-09T09:35:24;23.60;99.90
13256;DHT22;37913;48.370;10.930;2022-09-09T09:37:52;23.30;99.90
13256;DHT22;37913;48.370;10.930;2022-09-09T09:40:21;21.70;99.90
13256;DHT22;37913;48.370;10.930;2022-09-09T09:42:51;21.40;99.90
13256;DHT22;37913;48.370;10.930;2022-09-09T09:45:28;21.80;99.90
13256;DHT22;37913;48.370;10.930;2022-09-09T09:48:02;21.60;99.90
13256;DHT22;37913;48.370;10.930;2022-09-09T09:50:30;23.10;99.90
13256;DHT22;37913;48.370;10.930;2022-09-09T09:52:59;22.20;99.90
13256;DHT22;37913;48.370;10.930;2022-09-09T09:55:26;22.80;99.90
13256;DHT22;37913;48.370;10.930;2022-09-09T09:58:01;22.50;99.90
13256;DHT22;37913;48.370;10.930;2022-09-09T10:00:30;21.50;99.90
13256;DHT22;37913;48.370;10.930;2022-09-09T10:02:59;21.10;99.90
13256;DHT22;37913;48.370;10.930;2022-09-09T10:05:28;21.20;99.90
13256;DHT22;37913;48.370;10.930;2022-09-09T10:08:04;21.60;99.90
13256;DHT22;37913;48.370;10.930;2022-09-09T10:10:57;21.20;99.90
13256;DHT22;37913;48.370;10.930;2022-09-09T10:13:29;20.80;99.90
13256;DHT22;37913;48.370;10.930;2022-09-09T10:16:09;20.80;99.90
13256;DHT22;37913;48.370;10.930;2022-09-09T10:18:47;21.60;99.90
13256;DHT22;37913;48.370;10.930;2022-09-09T10:21:27;21.70;99.90
13256;DHT22;37913;48.370;10.930;2022-09-09T10:24:22;21.30;99.90
13256;DHT22;37913;48.370;10.930;2022-09-09T10:26:56;21.70;99.90
13256;DHT22;37913;48.370;10.930;2022-09-09T10:29:44;22.20;99.90
13256;DHT22;37913;48.370;10.930;2022-09-09T10:32:40;22.30;99.90
13256;DHT22;37913;48.370;10.930;2022-09-09T10:35:14;22.30;99.90
13256;DHT22;37913;48.370;10.930;2022-09-09T10:40:39;21.10;99.90
13256;DHT22;37913;48.370;10.930;2022-09-09T10:43:18;21.20;99.90
13256;DHT22;37913;48.370;10.930;2022-09-09T10:45:55;21.80;99.90
13256;DHT22;37913;48.370;10.930;2022-09-09T10:48:48;21.20;99.90
13256;DHT22;37913;48.370;10.930;2022-09-09T10:51:26;21.00;99.90
13256;DHT22;37913;48.370;10.930;2022-09-09T10:54:11;20.60;99.90
13256;DHT22;37913;48.370;10.930;2022-09-09T10:56:42;21.00;99.90
13256;DHT22;37913;48.370;10.930;2022-09-09T10:59:13;20.80;99.90
13256;DHT22;37913;48.370;10.930;2022-09-09T11:01:44;20.80;99.90
13256;DHT22;37913;48.370;10.930;2022-09-09T11:04:19;20.90;99.90
13256;DHT22;37913;48.370;10.930;2022-09-09T11:06:50;20.80;99.90
13256;DHT22;37913;48.370;10.930;2022-09-09T11:09:22;20.30;99.90
13256;DHT22;37913;48.370;10.930;2022-09-09T11:11:53;20.60;99.90
13256;DHT22;37913;48.370;10.930;2022-09-09T11:14:26;21.00;99.90
13256;DHT22;37913;48.370;10.930;2022-09-09T11:16:57;21.60;99.90
13256;DHT22;37913;48.370;10.930;2022-09-09T11:19:31;20.70;99.90
13256;DHT22;37913;48.370;10.930;2022-09-09T11:22:02;20.60;99.90
13256;DHT22;37913;48.370;10.930;2022-09-09T11:24:35;21.30;99.90
13256;DHT22;37913;48.370;10.930;2022-09-09T11:27:09;20.80;99.90
13256;DHT22;37913;48.370;10.930;2022-09-09T11:30:04;20.80;99.90
13256;DHT22;37913;48.370;10.930;2022-09-09T11:32:54;21.10;99.90
13256;DHT22;37913;48.370;10.930;2022-09-09T11:35:33;20.90;99.90
13256;DHT22;37913;48.370;10.930;2022-09-09T11:38:21;21.00;99.90
13256;DHT22;37913;48.370;10.930;2022-09-09T11:40:55;20.80;99.90
13256;DHT22;37913;48.370;10.930;2022-09-09T11:43:26;21.00;99.90
13256;DHT22;37913;48.370;10.930;2022-09-09T11:45:55;21.30;99.90
13256;DHT22;37913;48.370;10.930;2022-09-09T11:48:28;21.20;99.90
13256;DHT22;37913;48.370;10.930;2022-09-09T11:51:03;21.90;99.90
13256;DHT22;37913;48.370;10.930;2022-09-09T11:53:31;21.70;99.90
13256;DHT22;37913;48.370;10.930;2022-09-09T11:56:06;22.20;99.90
13256;DHT22;37913;48.370;10.930;2022-09-09T11:58:38;22.80;99.90
13256;DHT22;37913;48.370;10.930;2022-09-09T12:01:28;23.80;99.90
13256;DHT22;37913;48.370;10.930;2022-09-09T12:04:09;24.10;99.90
13256;DHT22;37913;48.370;10.930;2022-09-09T12:06:44;23.50;99.90
13256;DHT22;37913;48.370;10.930;2022-09-09T12:09:26;23.30;99.90
13256;DHT22;37913;48.370;10.930;2022-09-09T12:12:05;23.60;99.90
13256;DHT22;37913;48.370;10.930;2022-09-09T12:14:37;23.40;99.90
13256;DHT22;37913;48.370;10.930;2022-09-09T12:17:17;23.80;99.90
13256;DHT22;37913;48.370;10.930;2022-09-09T12:19:46;25.60;99.90
13256;DHT22;37913;48.370;10.930;2022-09-09T12:22:22;27.50;99.90
13256;DHT22;37913;48.370;10.930;2022-09-09T12:24:59;26.10;99.90
13256;DHT22;37913;48.370;10.930;2022-09-09T12:27:34;25.20;99.90
13256;DHT22;37913;48.370;10.930;2022-09-09T12:30:09;23.60;99.90
13256;DHT22;37913;48.370;10.930;2022-09-09T12:32:37;22.80;99.90
13256;DHT22;37913;48.370;10.930;2022-09-09T12:35:10;22.70;99.90
13256;DHT22;37913;48.370;10.930;2022-09-09T12:37:41;22.00;99.90
13256;DHT22;37913;48.370;10.930;2022-09-09T12:40:20;22.30;99.90
13256;DHT22;37913;48.370;10.930;2022-09-09T12:42:48;22.70;99.90
13256;DHT22;37913;48.370;10.930;2022-09-09T12:45:17;22.80;99.90
13256;DHT22;37913;48.370;10.930;2022-09-09T12:47:47;22.40;99.90
13256;DHT22;37913;48.370;10.930;2022-09-09T12:50:19;22.80;99.90
13256;DHT22;37913;48.370;10.930;2022-09-09T12:52:50;22.90;99.90
13256;DHT22;37913;48.370;10.930;2022-09-09T12:55:20;22.80;99.90
13256;DHT22;37913;48.370;10.930;2022-09-09T12:57:51;22.90;99.90
13256;DHT22;37913;48.370;10.930;2022-09-09T13:00:20;22.80;99.90
13256;DHT22;37913;48.370;10.930;2022-09-09T13:02:50;22.70;99.90
13256;DHT22;37913;48.370;10.930;2022-09-09T13:05:20;22.00;99.90
13256;DHT22;37913;48.370;10.930;2022-09-09T13:07:49;22.10;99.90
13256;DHT22;37913;48.370;10.930;2022-09-09T13:10:23;22.10;99.90
13256;DHT22;37913;48.370;10.930;2022-09-09T13:12:52;21.90;99.90
13256;DHT22;37913;48.370;10.930;2022-09-09T13:15:21;21.80;99.90
13256;DHT22;37913;48.370;10.930;2022-09-09T13:17:54;21.50;99.90
13256;DHT22;37913;48.370;10.930;2022-09-09T13:20:22;21.80;99.90
13256;DHT22;37913;48.370;10.930;2022-09-09T13:22:54;22.70;99.90
13256;DHT22;37913;48.370;10.930;2022-09-09T13:25:25;23.80;99.90
13256;DHT22;37913;48.370;10.930;2022-09-09T13:27:57;24.20;99.90
13256;DHT22;37913;48.370;10.930;2022-09-09T13:30:27;25.30;99.90
13256;DHT22;37913;48.370;10.930;2022-09-09T13:33:03;25.20;99.90
13256;DHT22;37913;48.370;10.930;2022-09-09T13:35:30;26.00;99.90
13256;DHT22;37913;48.370;10.930;2022-09-09T13:38:06;25.60;99.90
13256;DHT22;37913;48.370;10.930;2022-09-09T13:40:33;27.50;99.90
13256;DHT22;37913;48.370;10.930;2022-09-09T13:43:00;29.70;99.90
13256;DHT22;37913;48.370;10.930;2022-09-09T13:45:27;32.30;99.70
13256;DHT22;37913;48.370;10.930;2022-09-09T13:47:55;34.20;95.80
13256;DHT22;37913;48.370;10.930;2022-09-09T13:50:23;34.80;93.00
13256;DHT22;37913;48.370;10.930;2022-09-09T13:52:52;34.20;92.40
13256;DHT22;37913;48.370;10.930;2022-09-09T13:55:22;28.50;96.50
13256;DHT22;37913;48.370;10.930;2022-09-09T13:57:54;26.40;99.70
13256;DHT22;37913;48.370;10.930;2022-09-09T14:00:21;24.70;99.90
13256;DHT22;37913;48.370;10.930;2022-09-09T14:02:50;23.60;99.90
13256;DHT22;37913;48.370;10.930;2022-09-09T14:05:17;22.10;99.90
13256;DHT22;37913;48.370;10.930;2022-09-09T14:07:45;21.20;99.90
13256;DHT22;37913;48.370;10.930;2022-09-09T14:10:12;20.70;99.90
13256;DHT22;37913;48.370;10.930;2022-09-09T14:12:40;20.30;99.90
13256;DHT22;37913;48.370;10.930;2022-09-09T14:15:10;20.30;99.90
13256;DHT22;37913;48.370;10.930;2022-09-09T14:17:38;19.60;99.90
13256;DHT22;37913;48.370;10.930;2022-09-09T14:20:06;17.30;99.90
13256;DHT22;37913;48.370;10.930;2022-09-09T14:22:35;16.00;99.90
13256;DHT22;37913;48.370;10.930;2022-09-09T14:25:02;14.30;99.90
13256;DHT22;37913;48.370;10.930;2022-09-09T14:27:29;14.00;99.90
13256;DHT22;37913;48.370;10.930;2022-09-09T14:29:58;13.50;99.90
13256;DHT22;37913;48.370;10.930;2022-09-09T14:32:25;13.70;99.90
13256;DHT22;37913;48.370;10.930;2022-09-09T14:34:52;14.10;99.90
13256;DHT22;37913;48.370;10.930;2022-09-09T14:37:19;14.60;99.90
13256;DHT22;37913;48.370;10.930;2022-09-09T14:39:47;15.60;99.90
13256;DHT22;37913;48.370;10.930;2022-09-09T14:42:16;16.80;99.90
13256;DHT22;37913;48.370;10.930;2022-09-09T14:44:42;17.40;99.90
13256;DHT22;37913;48.370;10.930;2022-09-09T14:47:11;17.10;99.90
13256;DHT22;37913;48.370;10.930;2022-09-09T14:49:38;16.80;99.90
13256;DHT22;37913;48.370;10.930;2022-09-09T14:52:05;16.90;99.90
13256;DHT22;37913;48.370;10.930;2022-09-09T14:54:32;17.10;99.90
13256;DHT22;37913;48.370;10.930;2022-09-09T14:56:59;16.90;99.90
13256;DHT22;37913;48.370;10.930;2022-09-09T14:59:26;16.60;99.90
13256;DHT22;37913;48.370;10.930;2022-09-09T15:01:53;16.60;99.90
13256;DHT22;37913;48.370;10.930;2022-09-09T15:04:21;16.50;99.90
13256;DHT22;37913;48.370;10.930;2022-09-09T15:06:48;17.00;99.90
13256;DHT22;37913;48.370;10.930;2022-09-09T15:09:17;17.10;99.90
13256;DHT22;37913;48.370;10.930;2022-09-09T15:11:44;17.30;99.90
13256;DHT22;37913;48.370;10.930;2022-09-09T15:14:11;17.90;99.90
13256;DHT22;37913;48.370;10.930;2022-09-09T15:16:39;18.00;99.90
13256;DHT22;37913;48.370;10.930;2022-09-09T15:19:06;18.20;99.90
13256;DHT22;37913;48.370;10.930;2022-09-09T15:21:36;18.00;99.90
13256;DHT22;37913;48.370;10.930;2022-09-09T15:24:03;18.00;99.90
13256;DHT22;37913;48.370;10.930;2022-09-09T15:26:32;17.30;99.90
13256;DHT22;37913;48.370;10.930;2022-09-09T15:29:00;16.40;99.90
13256;DHT22;37913;48.370;10.930;2022-09-09T15:31:29;16.20;99.90
13256;DHT22;37913;48.370;10.930;2022-09-09T15:33:58;16.40;99.90
13256;DHT22;37913;48.370;10.930;2022-09-09T15:36:28;16.50;99.90
13256;DHT22;37913;48.370;10.930;2022-09-09T15:38:57;16.80;99.90
13256;DHT22;37913;48.370;10.930;2022-09-09T15:41:24;16.80;99.90